createdAt,value
2022-11-05T00:00:17.652Z,16.23
2022-11-05T00:03:03.338Z,17.42
2022-11-05T00:05:49.203Z,15.70
2022-11-05T00:08:34.944Z,16.30
2022-11-05T00:11:02.446Z,17.13
2022-11-05T00:13:47.959Z,16.17
2022-11-05T00:16:33.638Z,16.25
2022-11-05T00:19:06.890Z,16.77
2022-11-05T00:21:53.876Z,16.75
2022-11-05T00:24:39.595Z,16.58
2022-11-05T00:27:07.037Z,16.73
2022-11-05T00:29:34.187Z,16.67
2022-11-05T00:32:01.629Z,17.60
2022-11-05T00:34:28.583Z,16.10
2022-11-05T00:36:56.407Z,15.70
2022-11-05T00:39:23.529Z,16.35
2022-11-05T00:42:10.483Z,17.67
2022-11-05T00:44:56.023Z,16.05
2022-11-05T00:47:41.501Z,16.88
2022-11-05T00:50:11.021Z,16.40
2022-11-05T00:52:57.660Z,16.67
2022-11-05T00:55:35.533Z,16.45
2022-11-05T00:58:05.778Z,16.52
2022-11-05T01:00:34.580Z,16.30
2022-11-05T01:03:06.775Z,17.00
2022-11-05T01:05:34.706Z,17.33
2022-11-05T01:08:02.143Z,16.83
2022-11-05T01:10:29.632Z,17.48
2022-11-05T01:12:56.686Z,17.45
2022-11-05T01:15:23.817Z,16.63
2022-11-05T01:17:52.265Z,16.05
2022-11-05T01:20:19.205Z,16.70
2022-11-05T01:22:46.209Z,16.33
2022-11-05T01:25:13.382Z,16.00
2022-11-05T01:27:40.562Z,16.95
2022-11-05T01:30:09.020Z,16.52
2022-11-05T01:32:37.740Z,15.52
2022-11-05T01:35:06.701Z,16.67
2022-11-05T01:37:34.807Z,16.48
2022-11-05T01:40:01.800Z,16.00
2022-11-05T01:42:29.272Z,16.70
2022-11-05T01:45:01.241Z,16.65
2022-11-05T01:47:36.737Z,15.38
2022-11-05T01:50:16.211Z,16.20
2022-11-05T01:52:43.220Z,16.40
2022-11-05T01:55:10.716Z,17.75
2022-11-05T01:57:38.207Z,17.45
2022-11-05T02:00:05.877Z,16.80
2022-11-05T02:02:32.749Z,17.02
2022-11-05T02:05:04.031Z,16.45
2022-11-05T02:07:31.653Z,17.60
2022-11-05T02:10:07.109Z,17.10
2022-11-05T02:12:36.713Z,17.38
2022-11-05T02:15:03.868Z,17.42
2022-11-05T02:17:44.891Z,17.00
2022-11-05T02:21:00.051Z,17.15
2022-11-05T02:23:54.198Z,16.33
2022-11-05T02:27:02.786Z,18.20
2022-11-05T02:29:47.939Z,17.95
2022-11-05T02:32:18.954Z,16.90
2022-11-05T02:35:04.432Z,18.45
2022-11-05T02:37:40.560Z,17.35
2022-11-05T02:40:36.902Z,16.48
2022-11-05T02:43:47.484Z,17.50
2022-11-05T02:46:27.093Z,17.88
2022-11-05T02:49:15.744Z,17.30
2022-11-05T02:51:59.558Z,17.52
2022-11-05T02:54:42.200Z,17.65
2022-11-05T02:57:09.256Z,16.88
2022-11-05T02:59:39.080Z,18.05
2022-11-05T03:02:06.896Z,18.05
2022-11-05T03:04:34.070Z,17.45
2022-11-05T03:07:19.832Z,17.80
2022-11-05T03:09:55.859Z,18.17
2022-11-05T03:12:49.315Z,16.85
2022-11-05T03:15:19.270Z,17.75
2022-11-05T03:18:11.624Z,17.53
2022-11-05T03:20:52.169Z,16.75
2022-11-05T03:23:28.464Z,17.15
2022-11-05T03:26:29.000Z,17.05
2022-11-05T03:29:07.446Z,17.85
2022-11-05T03:31:37.350Z,17.50
2022-11-05T03:34:07.322Z,17.87
2022-11-05T03:36:49.165Z,16.27
2022-11-05T03:39:26.903Z,17.17
2022-11-05T03:41:54.331Z,19.05
2022-11-05T03:44:26.544Z,18.65
2022-11-05T03:46:58.205Z,17.83
2022-11-05T03:49:34.752Z,18.08
2022-11-05T03:52:11.436Z,17.30
2022-11-05T03:54:38.650Z,18.75
2022-11-05T03:57:15.682Z,17.83
2022-11-05T03:59:45.801Z,17.58
2022-11-05T04:02:15.196Z,18.35
2022-11-05T04:04:43.835Z,17.77
2022-11-05T04:07:30.288Z,16.90
2022-11-05T04:10:15.919Z,19.90
2022-11-05T04:13:01.567Z,21.17
2022-11-05T04:15:49.397Z,20.88
2022-11-05T04:18:16.366Z,21.40
2022-11-05T04:21:02.229Z,19.77
2022-11-05T04:23:47.999Z,22.02
2022-11-05T04:26:14.986Z,19.65
2022-11-05T04:29:03.840Z,19.38
2022-11-05T04:31:34.720Z,17.92
2022-11-05T04:34:01.886Z,19.40
2022-11-05T04:36:29.246Z,19.05
2022-11-05T04:38:56.666Z,19.25
2022-11-05T04:41:23.783Z,19.15
2022-11-05T04:43:50.751Z,19.70
2022-11-05T04:46:17.893Z,18.77
2022-11-05T04:48:45.060Z,19.33
2022-11-05T04:51:11.981Z,19.55
2022-11-05T04:53:38.939Z,19.67
2022-11-05T04:56:15.526Z,19.80
2022-11-05T04:58:43.200Z,19.00
2022-11-05T05:01:18.139Z,19.58
2022-11-05T05:03:48.742Z,20.33
2022-11-05T05:06:16.188Z,20.50
2022-11-05T05:08:43.184Z,19.60
2022-11-05T05:11:14.546Z,20.52
2022-11-05T05:13:41.431Z,19.38
2022-11-05T05:16:10.508Z,21.00
2022-11-05T05:18:40.912Z,19.35
2022-11-05T05:21:29.002Z,20.00
2022-11-05T05:23:55.959Z,19.85
2022-11-05T05:26:22.907Z,19.92
2022-11-05T05:28:49.847Z,19.50
2022-11-05T05:31:16.681Z,20.10
2022-11-05T05:33:43.746Z,21.00
2022-11-05T05:36:11.603Z,20.95
2022-11-05T05:38:38.866Z,19.75
2022-11-05T05:41:06.055Z,19.65
2022-11-05T05:43:34.109Z,19.52
2022-11-05T05:46:11.044Z,19.33
2022-11-05T05:48:38.317Z,20.00
2022-11-05T05:51:07.864Z,21.05
2022-11-05T05:53:35.223Z,20.27
2022-11-05T05:56:02.456Z,20.55
2022-11-05T05:58:35.339Z,19.98
2022-11-05T06:01:21.040Z,20.40
2022-11-05T06:03:49.188Z,19.35
2022-11-05T06:06:20.090Z,20.92
2022-11-05T06:08:47.788Z,19.92
2022-11-05T06:11:14.761Z,20.35
2022-11-05T06:13:41.677Z,20.98
2022-11-05T06:16:09.986Z,20.63
2022-11-05T06:18:38.223Z,21.63
2022-11-05T06:21:13.578Z,20.45
2022-11-05T06:23:42.777Z,19.85
2022-11-05T06:26:13.386Z,19.33
2022-11-05T06:28:42.327Z,19.40
2022-11-05T06:31:10.990Z,21.15
2022-11-05T06:33:38.910Z,20.40
2022-11-05T06:36:07.445Z,20.15
2022-11-05T06:38:36.858Z,21.50
2022-11-05T06:41:10.096Z,20.50
2022-11-05T06:43:37.940Z,21.00
2022-11-05T06:46:05.841Z,20.15
2022-11-05T06:48:33.376Z,20.98
2022-11-05T06:51:00.364Z,20.77
2022-11-05T06:53:27.360Z,21.63
2022-11-05T06:55:54.366Z,20.48
2022-11-05T06:58:21.732Z,19.80
2022-11-05T07:00:49.283Z,20.33
2022-11-05T07:03:16.528Z,19.92
2022-11-05T07:05:49.882Z,21.05
2022-11-05T07:08:17.362Z,19.95
2022-11-05T07:10:44.357Z,21.30
2022-11-05T07:13:11.812Z,23.27
2022-11-05T07:15:39.096Z,23.38
2022-11-05T07:18:09.752Z,22.73
2022-11-05T07:20:36.950Z,20.85
2022-11-05T07:23:06.665Z,22.13
2022-11-05T07:25:35.001Z,20.90
2022-11-05T07:28:02.579Z,19.98
2022-11-05T07:30:31.387Z,22.55
2022-11-05T07:32:58.326Z,20.70
2022-11-05T07:35:25.621Z,22.52
2022-11-05T07:37:56.807Z,21.52
2022-11-05T07:40:26.410Z,21.63
2022-11-05T07:42:55.622Z,22.73
2022-11-05T07:45:25.020Z,24.08
2022-11-05T07:47:57.656Z,21.42
2022-11-05T07:50:27.138Z,22.33
2022-11-05T07:52:54.454Z,21.77
2022-11-05T07:55:21.622Z,23.52
2022-11-05T07:57:50.839Z,22.45
2022-11-05T08:00:20.592Z,23.52
2022-11-05T08:03:02.319Z,22.83
2022-11-05T08:05:37.045Z,22.48
2022-11-05T08:08:04.724Z,24.67
2022-11-05T08:10:31.969Z,25.65
2022-11-05T08:12:58.903Z,26.58
2022-11-05T08:15:25.880Z,26.65
2022-11-05T08:18:05.142Z,27.63
2022-11-05T08:20:32.906Z,26.80
2022-11-05T08:23:00.421Z,26.25
2022-11-05T08:25:28.198Z,25.85
2022-11-05T08:28:00.092Z,25.02
2022-11-05T08:30:28.121Z,23.60
2022-11-05T08:33:00.353Z,24.40
2022-11-05T08:35:28.501Z,24.60
2022-11-05T08:38:03.281Z,24.40
2022-11-05T08:40:32.086Z,25.67
2022-11-05T08:43:00.861Z,25.67
2022-11-05T08:45:28.433Z,26.20
2022-11-05T08:48:06.355Z,26.00
2022-11-05T08:50:34.489Z,25.58
2022-11-05T08:53:01.494Z,25.58
2022-11-05T08:55:28.517Z,25.63
2022-11-05T08:58:04.397Z,27.33
2022-11-05T09:00:34.169Z,27.52
2022-11-05T09:03:02.804Z,24.52
2022-11-05T09:05:31.662Z,25.15
2022-11-05T09:08:01.388Z,26.17
2022-11-05T09:10:29.344Z,30.20
2022-11-05T09:12:56.494Z,28.70
2022-11-05T09:15:24.770Z,30.63
2022-11-05T09:17:51.841Z,30.48
2022-11-05T09:20:19.787Z,32.17
2022-11-05T09:22:47.354Z,27.63
2022-11-05T09:25:16.165Z,28.17
2022-11-05T09:27:43.854Z,28.65
2022-11-05T09:30:12.467Z,33.47
2022-11-05T09:32:39.665Z,29.75
2022-11-05T09:35:08.006Z,29.65
2022-11-05T09:37:36.138Z,29.55
2022-11-05T09:40:03.990Z,30.35
2022-11-05T09:42:43.355Z,30.20
2022-11-05T09:45:19.562Z,31.35
2022-11-05T09:47:51.348Z,31.75
2022-11-05T09:50:24.964Z,32.05
2022-11-05T09:52:51.962Z,32.78
2022-11-05T09:55:30.990Z,30.10
2022-11-05T09:58:01.192Z,32.10
2022-11-05T10:00:30.614Z,29.38
2022-11-05T10:03:05.508Z,29.45
2022-11-05T10:05:34.450Z,30.17
2022-11-05T10:08:07.699Z,30.52
2022-11-05T10:10:43.263Z,29.30
2022-11-05T10:13:27.023Z,28.52
2022-11-05T10:16:15.225Z,32.65
2022-11-05T10:18:47.578Z,31.40
2022-11-05T10:21:37.631Z,31.75
2022-11-05T10:24:14.404Z,30.80
2022-11-05T10:26:41.529Z,29.83
2022-11-05T10:29:13.959Z,30.50
2022-11-05T10:31:41.055Z,30.40
2022-11-05T10:34:09.209Z,31.70
2022-11-05T10:36:38.448Z,31.70
2022-11-05T10:39:15.317Z,31.40
2022-11-05T10:42:21.184Z,33.35
2022-11-05T10:45:06.345Z,30.90
2022-11-05T10:48:04.536Z,36.00
2022-11-05T10:50:32.079Z,35.85
2022-11-05T10:53:03.108Z,34.65
2022-11-05T10:55:41.003Z,37.60
2022-11-05T10:58:13.994Z,44.92
2022-11-05T11:00:41.515Z,40.50
2022-11-05T11:03:31.134Z,39.40
2022-11-05T11:06:01.367Z,37.63
2022-11-05T11:08:28.985Z,36.28
2022-11-05T11:11:02.574Z,35.22
2022-11-05T11:13:49.836Z,33.97
2022-11-05T11:16:22.252Z,35.90
2022-11-05T11:19:03.455Z,35.03
2022-11-05T11:21:32.420Z,34.70
2022-11-05T11:24:05.267Z,33.88
2022-11-05T11:26:36.489Z,35.55
2022-11-05T11:29:29.207Z,34.58
2022-11-05T11:31:59.948Z,34.58
2022-11-05T11:37:19.408Z,34.83
2022-11-05T11:39:51.395Z,39.72
2022-11-05T11:42:24.173Z,38.50
2022-11-05T11:44:52.021Z,35.80
2022-11-05T11:47:21.534Z,42.03
2022-11-05T11:49:56.855Z,43.85
2022-11-05T11:52:35.305Z,41.45
2022-11-05T11:55:19.256Z,38.35
2022-11-05T11:57:49.896Z,38.95
2022-11-05T12:00:18.590Z,40.53
2022-11-05T12:02:51.167Z,41.05
2022-11-05T12:05:29.963Z,41.53
2022-11-05T12:08:05.965Z,41.08
2022-11-05T12:10:41.688Z,42.53
2022-11-05T12:13:21.143Z,39.78
2022-11-05T12:15:53.698Z,43.42
2022-11-05T12:18:35.504Z,45.47
2022-11-05T12:21:34.821Z,43.47
2022-11-05T12:24:35.103Z,44.72
2022-11-05T12:27:22.268Z,40.92
2022-11-05T12:29:51.942Z,46.08
2022-11-05T12:32:43.242Z,41.80
2022-11-05T12:35:24.183Z,38.08
2022-11-05T12:41:05.666Z,42.97
2022-11-05T12:43:41.824Z,38.55
2022-11-05T12:46:29.942Z,48.50
2022-11-05T12:49:02.621Z,48.10
2022-11-05T12:52:00.153Z,47.95
2022-11-05T12:54:45.654Z,46.65
2022-11-05T12:57:15.407Z,41.15
2022-11-05T12:59:58.718Z,48.13
2022-11-05T13:02:51.011Z,42.72
2022-11-05T13:05:39.412Z,46.13
2022-11-05T13:08:22.046Z,44.00
2022-11-05T13:10:58.601Z,47.08
2022-11-05T13:13:38.845Z,50.63
2022-11-05T13:16:10.822Z,49.22
2022-11-05T13:18:48.629Z,47.50
2022-11-05T13:21:18.084Z,50.60
2022-11-05T13:23:52.148Z,47.47
2022-11-05T13:26:37.923Z,47.85
2022-11-05T13:29:31.801Z,40.17
2022-11-05T13:32:08.872Z,38.33
2022-11-05T13:34:37.736Z,37.85
2022-11-05T13:37:25.957Z,37.15
2022-11-05T13:39:57.782Z,38.20
2022-11-05T13:42:50.001Z,35.17
2022-11-05T13:45:41.754Z,37.00
2022-11-05T13:48:27.539Z,39.72
2022-11-05T13:50:57.473Z,38.65
2022-11-05T13:53:36.518Z,36.93
2022-11-05T13:56:03.527Z,36.50
2022-11-05T13:58:57.296Z,42.40
2022-11-05T14:01:33.496Z,38.40
2022-11-05T14:04:00.939Z,41.90
2022-11-05T14:06:32.049Z,44.42
2022-11-05T14:09:11.399Z,40.80
2022-11-05T14:11:43.086Z,38.85
2022-11-05T14:14:22.148Z,44.03
2022-11-05T14:17:09.381Z,43.50
2022-11-05T14:20:07.061Z,42.22
2022-11-05T14:22:33.922Z,40.17
2022-11-05T14:25:21.946Z,44.70
2022-11-05T14:27:52.056Z,49.60
2022-11-05T14:30:46.561Z,59.15
2022-11-05T14:33:31.848Z,52.08
2022-11-05T14:36:20.823Z,43.90
2022-11-05T14:39:13.358Z,46.28
2022-11-05T14:41:55.898Z,51.13
2022-11-05T14:44:24.639Z,52.30
2022-11-05T14:46:55.214Z,49.90
2022-11-05T14:49:51.352Z,48.58
2022-11-05T14:52:20.311Z,44.75
2022-11-05T14:54:56.630Z,44.83
2022-11-05T14:57:44.571Z,45.65
2022-11-05T15:00:29.536Z,53.80
2022-11-05T15:02:59.376Z,50.75
2022-11-05T15:05:33.648Z,44.10
2022-11-05T15:08:20.649Z,51.42
2022-11-05T15:10:49.435Z,45.70
2022-11-05T15:13:33.276Z,45.38
2022-11-05T15:16:00.309Z,49.28
2022-11-05T15:18:39.210Z,50.47
2022-11-05T15:21:11.114Z,45.47
2022-11-05T15:23:47.791Z,50.85
2022-11-05T15:26:32.540Z,51.00
2022-11-05T15:29:01.355Z,44.83
2022-11-05T15:31:37.558Z,50.10
2022-11-05T15:34:18.229Z,54.28
2022-11-05T15:36:53.895Z,55.38
2022-11-05T15:39:41.119Z,47.55
2022-11-05T15:42:28.383Z,47.90
2022-11-05T15:45:00.572Z,62.20
2022-11-05T15:47:34.517Z,54.30
2022-11-05T15:50:08.656Z,58.97
2022-11-05T15:52:42.673Z,53.20
2022-11-05T15:55:12.553Z,56.40
2022-11-05T15:57:59.739Z,52.57
2022-11-05T16:00:29.208Z,60.28
2022-11-05T16:02:57.732Z,55.70
2022-11-05T16:05:28.378Z,50.40
2022-11-05T16:07:59.337Z,59.47
2022-11-05T16:10:35.097Z,58.63
2022-11-05T16:13:21.686Z,53.92
2022-11-05T16:15:56.989Z,54.75
2022-11-05T16:18:30.100Z,59.25
2022-11-05T16:21:05.852Z,55.53
2022-11-05T16:23:43.472Z,56.13
2022-11-05T16:29:35.982Z,64.82
2022-11-05T16:32:31.357Z,58.92
2022-11-05T16:35:04.698Z,61.28
2022-11-05T16:37:38.646Z,65.32
2022-11-05T16:40:19.769Z,62.83
2022-11-05T16:42:51.843Z,60.88
2022-11-05T16:45:21.567Z,60.22
2022-11-05T16:47:48.664Z,58.50
2022-11-05T16:50:33.772Z,60.58
2022-11-05T16:53:00.782Z,59.10
2022-11-05T16:55:27.867Z,66.35
2022-11-05T16:57:56.306Z,70.93
2022-11-05T17:00:24.476Z,72.80
2022-11-05T17:02:51.783Z,78.00
2022-11-05T17:05:21.118Z,94.25
2022-11-05T17:07:48.279Z,79.40
2022-11-05T17:10:15.443Z,81.32
2022-11-05T17:12:43.228Z,76.13
2022-11-05T17:15:26.006Z,82.60
2022-11-05T17:17:54.854Z,72.82
2022-11-05T17:20:39.472Z,77.28
2022-11-05T17:23:08.663Z,77.78
2022-11-05T17:25:36.092Z,70.13
2022-11-05T17:28:03.354Z,82.68
2022-11-05T17:30:30.344Z,74.63
2022-11-05T17:32:57.479Z,75.75
2022-11-05T17:35:24.549Z,70.00
2022-11-05T17:37:51.516Z,72.28
2022-11-05T17:40:22.649Z,81.05
2022-11-05T17:42:50.801Z,76.93
2022-11-05T17:45:18.576Z,75.25
2022-11-05T17:47:45.954Z,66.70
2022-11-05T17:50:15.070Z,67.95
2022-11-05T17:52:43.019Z,68.78
2022-11-05T17:55:16.920Z,61.70
2022-11-05T17:57:48.697Z,64.32
2022-11-05T18:00:23.788Z,62.30
2022-11-05T18:02:53.474Z,67.68
2022-11-05T18:05:22.142Z,76.38
2022-11-05T18:07:50.212Z,76.55
2022-11-05T18:10:17.633Z,61.63
2022-11-05T18:12:44.737Z,83.30
2022-11-05T18:15:12.740Z,73.53
2022-11-05T18:17:39.808Z,82.35
2022-11-05T18:20:14.224Z,78.72
2022-11-05T18:22:44.929Z,78.32
2022-11-05T18:25:13.878Z,72.38
2022-11-05T18:27:41.318Z,78.53
2022-11-05T18:30:09.480Z,66.15
2022-11-05T18:32:36.960Z,67.47
2022-11-05T18:35:04.152Z,67.80
2022-11-05T18:37:31.000Z,66.82
2022-11-05T18:39:57.982Z,59.97
2022-11-05T18:42:25.683Z,58.00
2022-11-05T18:44:52.777Z,64.38
2022-11-05T18:47:19.750Z,67.18
2022-11-05T18:49:46.735Z,57.72
2022-11-05T18:52:13.964Z,58.63
2022-11-05T18:54:40.983Z,54.80
2022-11-05T18:57:08.028Z,55.80
2022-11-05T18:59:38.550Z,57.33
2022-11-05T19:02:07.892Z,61.55
2022-11-05T19:04:37.994Z,57.90
2022-11-05T19:07:06.256Z,63.45
2022-11-05T19:09:34.952Z,54.35
2022-11-05T19:12:02.670Z,55.30
2022-11-05T19:14:30.461Z,59.53
2022-11-05T19:16:58.369Z,67.22
2022-11-05T19:19:25.845Z,55.00
2022-11-05T19:21:52.833Z,48.08
2022-11-05T19:24:19.776Z,45.70
2022-11-05T19:26:47.752Z,51.05
2022-11-05T19:29:15.560Z,54.72
2022-11-05T19:31:42.570Z,50.85
2022-11-05T19:34:09.680Z,46.78
2022-11-05T19:36:36.596Z,44.53
2022-11-05T19:39:09.279Z,42.80
2022-11-05T19:41:36.636Z,44.38
2022-11-05T19:44:03.711Z,37.88
2022-11-05T19:46:31.825Z,34.65
2022-11-05T19:49:00.958Z,33.38
2022-11-05T19:51:29.940Z,33.13
2022-11-05T19:53:56.952Z,33.17
2022-11-05T19:56:32.108Z,28.15
2022-11-05T19:59:00.299Z,28.92
2022-11-05T20:01:28.880Z,28.27
2022-11-05T20:03:57.438Z,29.30
2022-11-05T20:06:29.001Z,25.27
2022-11-05T20:11:49.733Z,27.83
2022-11-05T20:14:17.636Z,31.30
2022-11-05T20:16:46.389Z,25.30
2022-11-05T20:19:17.335Z,28.10
2022-11-05T20:21:44.789Z,24.50
2022-11-05T20:24:17.494Z,25.15
2022-11-05T20:26:49.268Z,27.23
2022-11-05T20:29:16.427Z,23.80
2022-11-05T20:31:43.405Z,28.85
2022-11-05T20:34:10.870Z,28.05
2022-11-05T20:36:39.841Z,25.88
2022-11-05T20:39:06.807Z,22.13
2022-11-05T20:41:33.804Z,21.75
2022-11-05T20:44:00.758Z,24.73
2022-11-05T20:46:28.195Z,21.83
2022-11-05T20:48:55.300Z,23.77
2022-11-05T20:51:24.745Z,22.85
2022-11-05T20:53:56.672Z,22.08
2022-11-05T20:56:26.480Z,20.02
2022-11-05T20:58:54.180Z,20.10
2022-11-05T21:01:21.449Z,25.75
2022-11-05T21:03:48.710Z,23.40
2022-11-05T21:06:16.206Z,22.25
2022-11-05T21:08:44.199Z,23.77
2022-11-05T21:11:11.166Z,20.90
2022-11-05T21:13:38.676Z,22.65
2022-11-05T21:16:08.256Z,23.70
2022-11-05T21:18:38.126Z,22.08
2022-11-05T21:21:10.012Z,22.17
2022-11-05T21:23:36.992Z,24.85
2022-11-05T21:26:08.774Z,27.23
2022-11-05T21:28:38.577Z,28.20
2022-11-05T21:31:07.027Z,26.00
2022-11-05T21:33:34.440Z,26.88
2022-11-05T21:36:07.360Z,25.75
2022-11-05T21:38:34.341Z,28.08
2022-11-05T21:41:03.278Z,26.23
2022-11-05T21:43:30.209Z,28.17
2022-11-05T21:46:01.353Z,24.63
2022-11-05T21:48:28.617Z,28.23
2022-11-05T21:51:13.952Z,27.70
2022-11-05T21:53:59.595Z,26.05
2022-11-05T21:56:45.643Z,30.00
2022-11-05T21:59:33.306Z,27.13
2022-11-05T22:02:03.541Z,27.52
2022-11-05T22:04:34.484Z,27.80
2022-11-05T22:07:01.887Z,30.42
2022-11-05T22:09:29.443Z,29.05
2022-11-05T22:11:56.384Z,32.33
2022-11-05T22:14:24.624Z,32.13
2022-11-05T22:16:51.674Z,29.48
2022-11-05T22:19:19.591Z,29.30
2022-11-05T22:21:47.459Z,29.48
2022-11-05T22:24:14.419Z,31.52
2022-11-05T22:26:43.612Z,29.48
2022-11-05T22:29:10.819Z,29.90
2022-11-05T22:31:38.014Z,30.17
2022-11-05T22:34:06.955Z,31.40
2022-11-05T22:36:34.871Z,30.73
2022-11-05T22:39:02.378Z,30.35
2022-11-05T22:41:30.286Z,31.25
2022-11-05T22:43:58.262Z,31.13
2022-11-05T22:46:27.200Z,31.40
2022-11-05T22:48:54.690Z,29.05
2022-11-05T22:51:25.028Z,29.58
2022-11-05T22:53:52.145Z,30.98
2022-11-05T22:56:22.154Z,27.67
2022-11-05T22:58:49.638Z,29.08
2022-11-05T23:01:17.883Z,27.52
2022-11-05T23:03:46.682Z,26.52
2022-11-05T23:06:33.967Z,25.08
2022-11-05T23:09:29.567Z,28.35
2022-11-05T23:11:57.761Z,27.20
2022-11-05T23:14:25.160Z,30.23
2022-11-05T23:17:10.588Z,30.08
2022-11-05T23:19:56.270Z,27.58
2022-11-05T23:22:44.810Z,30.80
2022-11-05T23:25:14.549Z,26.75
2022-11-05T23:27:42.029Z,26.70
2022-11-05T23:30:15.497Z,27.85
2022-11-05T23:32:42.572Z,32.28
2022-11-05T23:35:10.162Z,28.50
2022-11-05T23:37:55.501Z,27.83
2022-11-05T23:40:25.873Z,27.40
2022-11-05T23:43:12.132Z,26.75
2022-11-05T23:46:00.008Z,31.02
2022-11-05T23:48:29.561Z,28.83
2022-11-05T23:50:56.482Z,29.23
2022-11-05T23:53:24.227Z,28.65
2022-11-05T23:55:51.221Z,27.48
2022-11-05T23:58:19.356Z,28.90
